sensor_id;sensor_type;location;lat;lon;timestamp;P1;durP1;ratioP1;P2;durP2;ratioP2
67503;SDS011;54351;49.108;1.502;2022-11-20T00:09:29;51.70;;;48.10;;
67503;SDS011;54351;49.108;1.502;2022-11-20T00:18:33;94.85;;;89.13;;
67503;SDS011;54351;49.108;1.502;2022-11-20T00:33:52;72.65;;;67.80;;
67503;SDS011;54351;49.108;1.502;2022-11-20T00:46:14;50.25;;;46.88;;
67503;SDS011;54351;49.108;1.502;2022-11-20T00:52:04;43.70;;;40.72;;
67503;SDS011;54351;49.108;1.502;2022-11-20T00:57:44;50.47;;;47.30;;
67503;SDS011;54351;49.108;1.502;2022-11-20T01:03:47;48.08;;;44.80;;
67503;SDS011;54351;49.108;1.502;2022-11-20T01:09:37;53.33;;;49.95;;
67503;SDS011;54351;49.108;1.502;2022-11-20T01:21:30;74.32;;;69.57;;
67503;SDS011;54351;49.108;1.502;2022-11-20T01:54:02;67.32;;;62.88;;
67503;SDS011;54351;49.108;1.502;2022-11-20T02:03:00;51.38;;;47.90;;
67503;SDS011;54351;49.108;1.502;2022-11-20T02:48:42;75.82;;;71.18;;
67503;SDS011;54351;49.108;1.502;2022-11-20T02:51:26;77.82;;;72.80;;
67503;SDS011;54351;49.108;1.502;2022-11-20T02:54:11;69.35;;;64.80;;
67503;SDS011;54351;49.108;1.502;2022-11-20T02:57:01;55.53;;;52.05;;
67503;SDS011;54351;49.108;1.502;2022-11-20T03:02:57;74.57;;;69.47;;
67503;SDS011;54351;49.108;1.502;2022-11-20T03:05:49;72.20;;;67.50;;
67503;SDS011;54351;49.108;1.502;2022-11-20T03:45:20;120.20;;;112.97;;
67503;SDS011;54351;49.108;1.502;2022-11-20T03:48:08;136.30;;;127.93;;
67503;SDS011;54351;49.108;1.502;2022-11-20T03:54:02;130.18;;;122.25;;
67503;SDS011;54351;49.108;1.502;2022-11-20T03:56:29;132.18;;;123.75;;
67503;SDS011;54351;49.108;1.502;2022-11-20T03:59:09;136.25;;;127.82;;
67503;SDS011;54351;49.108;1.502;2022-11-20T04:02:02;141.57;;;133.20;;
67503;SDS011;54351;49.108;1.502;2022-11-20T04:04:43;143.50;;;135.15;;
67503;SDS011;54351;49.108;1.502;2022-11-20T04:07:17;142.27;;;133.70;;
67503;SDS011;54351;49.108;1.502;2022-11-20T04:18:36;151.63;;;142.60;;
67503;SDS011;54351;49.108;1.502;2022-11-20T04:21:11;147.70;;;138.68;;
67503;SDS011;54351;49.108;1.502;2022-11-20T04:23:38;158.52;;;148.98;;
67503;SDS011;54351;49.108;1.502;2022-11-20T04:26:25;178.32;;;167.27;;
67503;SDS011;54351;49.108;1.502;2022-11-20T04:28:58;182.63;;;171.00;;
67503;SDS011;54351;49.108;1.502;2022-11-20T04:34:46;203.40;;;190.65;;
67503;SDS011;54351;49.108;1.502;2022-11-20T04:41:17;199.88;;;187.80;;
67503;SDS011;54351;49.108;1.502;2022-11-20T04:44:11;234.50;;;219.32;;
67503;SDS011;54351;49.108;1.502;2022-11-20T04:59:33;181.93;;;170.90;;
67503;SDS011;54351;49.108;1.502;2022-11-20T05:05:15;283.48;;;264.38;;
67503;SDS011;54351;49.108;1.502;2022-11-20T05:07:55;207.75;;;194.50;;
67503;SDS011;54351;49.108;1.502;2022-11-20T05:23:23;233.45;;;218.00;;
67503;SDS011;54351;49.108;1.502;2022-11-20T05:25:51;255.00;;;238.35;;
67503;SDS011;54351;49.108;1.502;2022-11-20T05:28:27;295.75;;;275.17;;
67503;SDS011;54351;49.108;1.502;2022-11-20T05:31:06;268.15;;;249.65;;
67503;SDS011;54351;49.108;1.502;2022-11-20T05:43:17;380.63;;;353.58;;
67503;SDS011;54351;49.108;1.502;2022-11-20T05:48:58;386.27;;;358.35;;
67503;SDS011;54351;49.108;1.502;2022-11-20T05:54:49;390.38;;;361.92;;
67503;SDS011;54351;49.108;1.502;2022-11-20T06:00:37;442.42;;;411.42;;
67503;SDS011;54351;49.108;1.502;2022-11-20T06:06:14;391.42;;;362.88;;
67503;SDS011;54351;49.108;1.502;2022-11-20T06:18:52;358.25;;;333.58;;
67503;SDS011;54351;49.108;1.502;2022-11-20T06:21:24;388.85;;;362.17;;
67503;SDS011;54351;49.108;1.502;2022-11-20T06:24:01;454.88;;;424.38;;
67503;SDS011;54351;49.108;1.502;2022-11-20T06:26:32;354.10;;;330.17;;
67503;SDS011;54351;49.108;1.502;2022-11-20T06:32:32;485.75;;;451.15;;
67503;SDS011;54351;49.108;1.502;2022-11-20T06:35:13;573.92;;;533.10;;
67503;SDS011;54351;49.108;1.502;2022-11-20T06:37:45;554.90;;;516.53;;
67503;SDS011;54351;49.108;1.502;2022-11-20T06:40:20;612.78;;;569.47;;
67503;SDS011;54351;49.108;1.502;2022-11-20T06:49:02;590.72;;;548.53;;
67503;SDS011;54351;49.108;1.502;2022-11-20T06:51:28;580.97;;;539.70;;
67503;SDS011;54351;49.108;1.502;2022-11-20T06:53:54;547.67;;;509.10;;
67503;SDS011;54351;49.108;1.502;2022-11-20T06:56:20;371.70;;;348.00;;
67503;SDS011;54351;49.108;1.502;2022-11-20T06:58:46;305.42;;;286.27;;
67503;SDS011;54351;49.108;1.502;2022-11-20T07:01:15;334.52;;;312.90;;
67503;SDS011;54351;49.108;1.502;2022-11-20T07:03:41;196.20;;;183.85;;
67503;SDS011;54351;49.108;1.502;2022-11-20T07:06:08;227.23;;;213.32;;
67503;SDS011;54351;49.108;1.502;2022-11-20T07:08:34;187.57;;;176.07;;
67503;SDS011;54351;49.108;1.502;2022-11-20T07:11:01;154.55;;;144.98;;
67503;SDS011;54351;49.108;1.502;2022-11-20T07:13:35;161.07;;;151.32;;
67503;SDS011;54351;49.108;1.502;2022-11-20T07:16:02;159.82;;;150.13;;
67503;SDS011;54351;49.108;1.502;2022-11-20T07:18:29;187.43;;;175.65;;
67503;SDS011;54351;49.108;1.502;2022-11-20T07:20:55;231.25;;;216.90;;
67503;SDS011;54351;49.108;1.502;2022-11-20T07:23:21;323.05;;;301.83;;
67503;SDS011;54351;49.108;1.502;2022-11-20T07:25:47;358.90;;;335.23;;
67503;SDS011;54351;49.108;1.502;2022-11-20T07:28:13;569.38;;;529.65;;
67503;SDS011;54351;49.108;1.502;2022-11-20T07:30:39;561.58;;;521.95;;
67503;SDS011;54351;49.108;1.502;2022-11-20T07:33:05;591.58;;;549.70;;
67503;SDS011;54351;49.108;1.502;2022-11-20T07:35:31;612.38;;;568.75;;
67503;SDS011;54351;49.108;1.502;2022-11-20T07:37:58;605.78;;;562.22;;
67503;SDS011;54351;49.108;1.502;2022-11-20T07:40:24;654.42;;;607.03;;
67503;SDS011;54351;49.108;1.502;2022-11-20T07:42:54;590.50;;;546.50;;
67503;SDS011;54351;49.108;1.502;2022-11-20T07:45:21;597.03;;;553.63;;
67503;SDS011;54351;49.108;1.502;2022-11-20T07:47:48;633.55;;;588.10;;
67503;SDS011;54351;49.108;1.502;2022-11-20T07:56:04;681.90;;;633.50;;
67503;SDS011;54351;49.108;1.502;2022-11-20T07:58:41;632.38;;;588.80;;
67503;SDS011;54351;49.108;1.502;2022-11-20T08:01:10;624.08;;;579.72;;
67503;SDS011;54351;49.108;1.502;2022-11-20T08:03:36;622.88;;;579.17;;
67503;SDS011;54351;49.108;1.502;2022-11-20T08:06:05;657.10;;;610.63;;
67503;SDS011;54351;49.108;1.502;2022-11-20T08:08:43;686.80;;;638.40;;
67503;SDS011;54351;49.108;1.502;2022-11-20T08:11:09;714.50;;;664.03;;
67503;SDS011;54351;49.108;1.502;2022-11-20T08:13:54;715.70;;;663.92;;
67503;SDS011;54351;49.108;1.502;2022-11-20T08:16:41;568.08;;;527.70;;
67503;SDS011;54351;49.108;1.502;2022-11-20T08:19:08;578.67;;;538.58;;
67503;SDS011;54351;49.108;1.502;2022-11-20T08:21:36;590.08;;;549.10;;
67503;SDS011;54351;49.108;1.502;2022-11-20T08:24:02;644.28;;;599.63;;
67503;SDS011;54351;49.108;1.502;2022-11-20T08:26:31;662.28;;;616.38;;
67503;SDS011;54351;49.108;1.502;2022-11-20T08:29:00;666.22;;;619.80;;
67503;SDS011;54351;49.108;1.502;2022-11-20T08:31:26;678.03;;;630.60;;
67503;SDS011;54351;49.108;1.502;2022-11-20T08:33:53;680.47;;;631.80;;
67503;SDS011;54351;49.108;1.502;2022-11-20T08:36:19;660.10;;;612.95;;
67503;SDS011;54351;49.108;1.502;2022-11-20T08:38:57;677.85;;;630.38;;
67503;SDS011;54351;49.108;1.502;2022-11-20T08:41:23;641.47;;;596.75;;
67503;SDS011;54351;49.108;1.502;2022-11-20T08:43:55;684.00;;;636.35;;
67503;SDS011;54351;49.108;1.502;2022-11-20T08:46:22;657.72;;;612.38;;
67503;SDS011;54351;49.108;1.502;2022-11-20T08:48:48;687.97;;;640.58;;
67503;SDS011;54351;49.108;1.502;2022-11-20T08:51:32;637.60;;;593.40;;
67503;SDS011;54351;49.108;1.502;2022-11-20T08:53:58;673.55;;;626.83;;
67503;SDS011;54351;49.108;1.502;2022-11-20T08:56:27;700.47;;;651.83;;
67503;SDS011;54351;49.108;1.502;2022-11-20T08:58:59;663.25;;;617.63;;
67503;SDS011;54351;49.108;1.502;2022-11-20T09:01:31;668.85;;;622.30;;
67503;SDS011;54351;49.108;1.502;2022-11-20T09:03:57;642.00;;;597.75;;
67503;SDS011;54351;49.108;1.502;2022-11-20T09:06:25;654.45;;;609.97;;
67503;SDS011;54351;49.108;1.502;2022-11-20T09:08:55;665.88;;;620.03;;
67503;SDS011;54351;49.108;1.502;2022-11-20T09:11:32;653.42;;;608.28;;
67503;SDS011;54351;49.108;1.502;2022-11-20T09:13:58;674.90;;;628.80;;
67503;SDS011;54351;49.108;1.502;2022-11-20T09:16:27;663.17;;;617.20;;
67503;SDS011;54351;49.108;1.502;2022-11-20T09:21:57;557.60;;;520.70;;
67503;SDS011;54351;49.108;1.502;2022-11-20T09:24:27;598.40;;;558.45;;
67503;SDS011;54351;49.108;1.502;2022-11-20T09:27:00;624.65;;;582.28;;
67503;SDS011;54351;49.108;1.502;2022-11-20T09:29:47;608.80;;;568.10;;
67503;SDS011;54351;49.108;1.502;2022-11-20T09:32:17;552.92;;;516.53;;
67503;SDS011;54351;49.108;1.502;2022-11-20T09:34:47;586.90;;;547.97;;
67503;SDS011;54351;49.108;1.502;2022-11-20T09:37:16;605.53;;;564.92;;
67503;SDS011;54351;49.108;1.502;2022-11-20T09:39:42;599.10;;;559.10;;
67503;SDS011;54351;49.108;1.502;2022-11-20T09:52:47;530.53;;;496.58;;
67503;SDS011;54351;49.108;1.502;2022-11-20T09:55:16;448.65;;;420.67;;
67503;SDS011;54351;49.108;1.502;2022-11-20T09:57:48;444.67;;;416.60;;
67503;SDS011;54351;49.108;1.502;2022-11-20T10:00:35;498.70;;;466.55;;
67503;SDS011;54351;49.108;1.502;2022-11-20T10:06:13;354.83;;;332.05;;
67503;SDS011;54351;49.108;1.502;2022-11-20T10:09:18;364.20;;;341.33;;
67503;SDS011;54351;49.108;1.502;2022-11-20T10:19:26;471.42;;;440.35;;
67503;SDS011;54351;49.108;1.502;2022-11-20T10:22:14;553.25;;;516.65;;
67503;SDS011;54351;49.108;1.502;2022-11-20T10:24:51;400.38;;;374.00;;
67503;SDS011;54351;49.108;1.502;2022-11-20T10:30:03;325.35;;;304.23;;
67503;SDS011;54351;49.108;1.502;2022-11-20T10:32:34;467.35;;;436.33;;
67503;SDS011;54351;49.108;1.502;2022-11-20T10:35:44;451.20;;;421.75;;
67503;SDS011;54351;49.108;1.502;2022-11-20T10:37:56;369.80;;;346.48;;
67503;SDS011;54351;49.108;1.502;2022-11-20T10:40:27;415.83;;;390.27;;
67503;SDS011;54351;49.108;1.502;2022-11-20T10:48:01;524.53;;;492.10;;
67503;SDS011;54351;49.108;1.502;2022-11-20T10:50:34;440.73;;;413.02;;
67503;SDS011;54351;49.108;1.502;2022-11-20T10:55:56;455.08;;;426.08;;
67503;SDS011;54351;49.108;1.502;2022-11-20T11:03:53;478.83;;;445.98;;
67503;SDS011;54351;49.108;1.502;2022-11-20T11:06:34;426.40;;;398.88;;
67503;SDS011;54351;49.108;1.502;2022-11-20T11:09:04;484.45;;;452.55;;
67503;SDS011;54351;49.108;1.502;2022-11-20T11:11:33;485.15;;;452.58;;
67503;SDS011;54351;49.108;1.502;2022-11-20T11:16:31;433.63;;;403.90;;
67503;SDS011;54351;49.108;1.502;2022-11-20T11:19:10;401.48;;;374.63;;
67503;SDS011;54351;49.108;1.502;2022-11-20T11:21:37;439.92;;;409.83;;
67503;SDS011;54351;49.108;1.502;2022-11-20T11:26:59;445.55;;;414.55;;
67503;SDS011;54351;49.108;1.502;2022-11-20T11:29:29;397.65;;;370.92;;
67503;SDS011;54351;49.108;1.502;2022-11-20T11:34:40;490.15;;;456.10;;
67503;SDS011;54351;49.108;1.502;2022-11-20T11:37:14;432.60;;;402.85;;
67503;SDS011;54351;49.108;1.502;2022-11-20T11:39:42;426.15;;;397.30;;
67503;SDS011;54351;49.108;1.502;2022-11-20T11:42:11;328.73;;;306.83;;
67503;SDS011;54351;49.108;1.502;2022-11-20T11:44:43;533.00;;;498.35;;
67503;SDS011;54351;49.108;1.502;2022-11-20T11:47:44;468.02;;;438.17;;
67503;SDS011;54351;49.108;1.502;2022-11-20T11:53:23;564.30;;;528.17;;
67503;SDS011;54351;49.108;1.502;2022-11-20T11:58:14;589.97;;;551.92;;
67503;SDS011;54351;49.108;1.502;2022-11-20T12:00:49;581.75;;;543.05;;
67503;SDS011;54351;49.108;1.502;2022-11-20T12:03:21;553.70;;;516.50;;
67503;SDS011;54351;49.108;1.502;2022-11-20T12:06:13;476.70;;;445.13;;
67503;SDS011;54351;49.108;1.502;2022-11-20T12:14:34;554.20;;;515.92;;
67503;SDS011;54351;49.108;1.502;2022-11-20T12:17:10;519.50;;;483.95;;
67503;SDS011;54351;49.108;1.502;2022-11-20T12:19:51;562.72;;;525.05;;
67503;SDS011;54351;49.108;1.502;2022-11-20T12:30:31;560.55;;;521.80;;
67503;SDS011;54351;49.108;1.502;2022-11-20T12:43:28;348.15;;;325.63;;
67503;SDS011;54351;49.108;1.502;2022-11-20T12:46:18;470.90;;;436.92;;
67503;SDS011;54351;49.108;1.502;2022-11-20T12:49:06;553.30;;;513.38;;
67503;SDS011;54351;49.108;1.502;2022-11-20T13:06:42;534.35;;;495.20;;
67503;SDS011;54351;49.108;1.502;2022-11-20T13:09:09;670.28;;;620.13;;
67503;SDS011;54351;49.108;1.502;2022-11-20T13:11:42;674.83;;;624.67;;
67503;SDS011;54351;49.108;1.502;2022-11-20T13:14:20;654.75;;;604.40;;
67503;SDS011;54351;49.108;1.502;2022-11-20T13:19:37;671.28;;;620.40;;
67503;SDS011;54351;49.108;1.502;2022-11-20T13:22:29;653.72;;;604.00;;
67503;SDS011;54351;49.108;1.502;2022-11-20T13:25:31;702.83;;;648.40;;
67503;SDS011;54351;49.108;1.502;2022-11-20T13:27:56;712.90;;;653.83;;
67503;SDS011;54351;49.108;1.502;2022-11-20T13:30:23;708.65;;;651.20;;
67503;SDS011;54351;49.108;1.502;2022-11-20T13:32:50;469.15;;;435.30;;
67503;SDS011;54351;49.108;1.502;2022-11-20T13:35:54;532.22;;;494.67;;
67503;SDS011;54351;49.108;1.502;2022-11-20T13:38:11;490.08;;;456.38;;
67503;SDS011;54351;49.108;1.502;2022-11-20T13:40:59;528.78;;;492.75;;
67503;SDS011;54351;49.108;1.502;2022-11-20T13:43:42;513.15;;;476.55;;
67503;SDS011;54351;49.108;1.502;2022-11-20T13:46:09;451.75;;;421.17;;
67503;SDS011;54351;49.108;1.502;2022-11-20T13:51:17;291.67;;;272.65;;
67503;SDS011;54351;49.108;1.502;2022-11-20T13:59:25;339.42;;;318.65;;
67503;SDS011;54351;49.108;1.502;2022-11-20T14:01:53;331.83;;;310.63;;
67503;SDS011;54351;49.108;1.502;2022-11-20T14:04:30;327.05;;;306.55;;
67503;SDS011;54351;49.108;1.502;2022-11-20T14:07:01;301.77;;;282.85;;
67503;SDS011;54351;49.108;1.502;2022-11-20T14:09:31;263.80;;;247.52;;
67503;SDS011;54351;49.108;1.502;2022-11-20T14:11:58;339.85;;;318.70;;
67503;SDS011;54351;49.108;1.502;2022-11-20T14:14:28;200.25;;;187.77;;
67503;SDS011;54351;49.108;1.502;2022-11-20T14:19:49;161.52;;;150.05;;
67503;SDS011;54351;49.108;1.502;2022-11-20T14:22:34;152.23;;;142.30;;
67503;SDS011;54351;49.108;1.502;2022-11-20T14:25:01;159.80;;;148.85;;
67503;SDS011;54351;49.108;1.502;2022-11-20T14:27:28;108.40;;;100.05;;
67503;SDS011;54351;49.108;1.502;2022-11-20T14:30:03;62.90;;;57.65;;
67503;SDS011;54351;49.108;1.502;2022-11-20T14:32:47;334.55;;;311.13;;
67503;SDS011;54351;49.108;1.502;2022-11-20T14:38:38;326.20;;;302.58;;
67503;SDS011;54351;49.108;1.502;2022-11-20T14:41:08;471.67;;;437.92;;
67503;SDS011;54351;49.108;1.502;2022-11-20T14:43:35;498.42;;;463.52;;
67503;SDS011;54351;49.108;1.502;2022-11-20T14:46:08;387.23;;;359.75;;
67503;SDS011;54351;49.108;1.502;2022-11-20T14:48:42;462.30;;;429.88;;
67503;SDS011;54351;49.108;1.502;2022-11-20T14:54:07;261.00;;;244.73;;
67503;SDS011;54351;49.108;1.502;2022-11-20T14:56:36;317.70;;;295.98;;
67503;SDS011;54351;49.108;1.502;2022-11-20T14:59:02;306.73;;;285.55;;
67503;SDS011;54351;49.108;1.502;2022-11-20T15:01:29;516.92;;;481.08;;
67503;SDS011;54351;49.108;1.502;2022-11-20T15:03:59;489.98;;;454.98;;
67503;SDS011;54351;49.108;1.502;2022-11-20T15:06:26;600.80;;;559.27;;
67503;SDS011;54351;49.108;1.502;2022-11-20T15:08:53;469.48;;;436.73;;
67503;SDS011;54351;49.108;1.502;2022-11-20T15:11:20;355.80;;;331.40;;
67503;SDS011;54351;49.108;1.502;2022-11-20T15:13:51;350.15;;;325.13;;
67503;SDS011;54351;49.108;1.502;2022-11-20T15:16:18;232.13;;;216.35;;
67503;SDS011;54351;49.108;1.502;2022-11-20T15:18:45;221.88;;;206.90;;
67503;SDS011;54351;49.108;1.502;2022-11-20T15:21:12;502.42;;;467.33;;
67503;SDS011;54351;49.108;1.502;2022-11-20T15:26:39;648.65;;;603.63;;
67503;SDS011;54351;49.108;1.502;2022-11-20T15:29:07;686.88;;;639.22;;
67503;SDS011;54351;49.108;1.502;2022-11-20T15:31:34;549.50;;;511.00;;
67503;SDS011;54351;49.108;1.502;2022-11-20T15:34:00;130.85;;;122.43;;
67503;SDS011;54351;49.108;1.502;2022-11-20T15:36:26;77.13;;;72.03;;
67503;SDS011;54351;49.108;1.502;2022-11-20T15:38:52;63.80;;;59.38;;
67503;SDS011;54351;49.108;1.502;2022-11-20T15:41:22;64.63;;;60.40;;
67503;SDS011;54351;49.108;1.502;2022-11-20T15:43:48;62.20;;;57.67;;
67503;SDS011;54351;49.108;1.502;2022-11-20T15:46:15;57.78;;;53.22;;
67503;SDS011;54351;49.108;1.502;2022-11-20T15:48:42;65.35;;;60.88;;
67503;SDS011;54351;49.108;1.502;2022-11-20T15:53:39;51.75;;;48.45;;
67503;SDS011;54351;49.108;1.502;2022-11-20T15:56:06;51.85;;;47.97;;
67503;SDS011;54351;49.108;1.502;2022-11-20T15:58:32;61.97;;;57.78;;
67503;SDS011;54351;49.108;1.502;2022-11-20T16:00:58;74.43;;;69.50;;
67503;SDS011;54351;49.108;1.502;2022-11-20T16:03:24;107.88;;;100.68;;
67503;SDS011;54351;49.108;1.502;2022-11-20T16:05:50;146.18;;;136.32;;
67503;SDS011;54351;49.108;1.502;2022-11-20T16:08:16;160.95;;;149.43;;
67503;SDS011;54351;49.108;1.502;2022-11-20T16:10:42;471.02;;;435.45;;
67503;SDS011;54351;49.108;1.502;2022-11-20T16:13:12;612.90;;;567.65;;
67503;SDS011;54351;49.108;1.502;2022-11-20T16:15:58;417.98;;;385.77;;
67503;SDS011;54351;49.108;1.502;2022-11-20T16:18:24;538.33;;;498.20;;
67503;SDS011;54351;49.108;1.502;2022-11-20T16:20:51;406.83;;;376.05;;
67503;SDS011;54351;49.108;1.502;2022-11-20T16:23:18;449.65;;;418.48;;
67503;SDS011;54351;49.108;1.502;2022-11-20T16:25:45;415.00;;;387.40;;
67503;SDS011;54351;49.108;1.502;2022-11-20T16:28:11;335.90;;;314.73;;
67503;SDS011;54351;49.108;1.502;2022-11-20T16:30:37;269.33;;;253.48;;
67503;SDS011;54351;49.108;1.502;2022-11-20T16:33:04;223.55;;;210.48;;
67503;SDS011;54351;49.108;1.502;2022-11-20T16:35:37;92.70;;;86.60;;
67503;SDS011;54351;49.108;1.502;2022-11-20T16:38:03;41.92;;;39.08;;
67503;SDS011;54351;49.108;1.502;2022-11-20T16:40:30;27.08;;;24.40;;
67503;SDS011;54351;49.108;1.502;2022-11-20T16:42:56;30.90;;;27.98;;
67503;SDS011;54351;49.108;1.502;2022-11-20T16:45:22;51.65;;;47.53;;
67503;SDS011;54351;49.108;1.502;2022-11-20T16:47:48;68.22;;;63.70;;
67503;SDS011;54351;49.108;1.502;2022-11-20T16:50:14;53.70;;;49.88;;
67503;SDS011;54351;49.108;1.502;2022-11-20T16:52:40;73.85;;;68.93;;
67503;SDS011;54351;49.108;1.502;2022-11-20T16:55:09;87.85;;;82.00;;
67503;SDS011;54351;49.108;1.502;2022-11-20T16:57:35;91.45;;;85.72;;
67503;SDS011;54351;49.108;1.502;2022-11-20T17:00:02;124.93;;;116.90;;
67503;SDS011;54351;49.108;1.502;2022-11-20T17:02:28;104.35;;;97.65;;
67503;SDS011;54351;49.108;1.502;2022-11-20T17:04:54;122.78;;;115.22;;
67503;SDS011;54351;49.108;1.502;2022-11-20T17:07:20;132.15;;;124.32;;
67503;SDS011;54351;49.108;1.502;2022-11-20T17:09:50;118.10;;;110.13;;
67503;SDS011;54351;49.108;1.502;2022-11-20T17:12:16;150.52;;;141.25;;
67503;SDS011;54351;49.108;1.502;2022-11-20T17:14:42;161.00;;;150.90;;
67503;SDS011;54351;49.108;1.502;2022-11-20T17:17:08;195.00;;;183.95;;
67503;SDS011;54351;49.108;1.502;2022-11-20T17:19:34;223.57;;;210.32;;
67503;SDS011;54351;49.108;1.502;2022-11-20T17:22:00;213.95;;;200.80;;
67503;SDS011;54351;49.108;1.502;2022-11-20T17:24:26;254.85;;;240.20;;
67503;SDS011;54351;49.108;1.502;2022-11-20T17:26:53;291.52;;;273.30;;
67503;SDS011;54351;49.108;1.502;2022-11-20T17:29:19;306.27;;;286.98;;
67503;SDS011;54351;49.108;1.502;2022-11-20T17:31:48;309.75;;;290.58;;
67503;SDS011;54351;49.108;1.502;2022-11-20T17:34:14;359.60;;;337.00;;
67503;SDS011;54351;49.108;1.502;2022-11-20T17:36:41;351.98;;;328.83;;
67503;SDS011;54351;49.108;1.502;2022-11-20T17:39:18;398.35;;;372.65;;
67503;SDS011;54351;49.108;1.502;2022-11-20T17:41:44;406.38;;;379.77;;
67503;SDS011;54351;49.108;1.502;2022-11-20T17:44:30;431.00;;;402.85;;
67503;SDS011;54351;49.108;1.502;2022-11-20T17:46:56;379.77;;;355.02;;
67503;SDS011;54351;49.108;1.502;2022-11-20T17:49:22;361.25;;;337.80;;
67503;SDS011;54351;49.108;1.502;2022-11-20T17:51:48;383.52;;;359.15;;
67503;SDS011;54351;49.108;1.502;2022-11-20T17:54:14;373.90;;;349.80;;
67503;SDS011;54351;49.108;1.502;2022-11-20T17:56:40;383.30;;;358.63;;
67503;SDS011;54351;49.108;1.502;2022-11-20T17:59:25;432.50;;;405.20;;
67503;SDS011;54351;49.108;1.502;2022-11-20T18:01:51;426.77;;;398.30;;
67503;SDS011;54351;49.108;1.502;2022-11-20T18:04:18;486.35;;;453.02;;
67503;SDS011;54351;49.108;1.502;2022-11-20T18:06:44;533.58;;;496.02;;
67503;SDS011;54351;49.108;1.502;2022-11-20T18:09:11;523.28;;;484.92;;
67503;SDS011;54351;49.108;1.502;2022-11-20T18:11:38;562.90;;;524.22;;
67503;SDS011;54351;49.108;1.502;2022-11-20T18:14:05;527.47;;;490.45;;
67503;SDS011;54351;49.108;1.502;2022-11-20T18:16:51;575.72;;;534.72;;
67503;SDS011;54351;49.108;1.502;2022-11-20T18:19:18;555.28;;;515.53;;
67503;SDS011;54351;49.108;1.502;2022-11-20T18:21:45;499.52;;;462.17;;
67503;SDS011;54351;49.108;1.502;2022-11-20T18:24:11;693.30;;;643.15;;
67503;SDS011;54351;49.108;1.502;2022-11-20T18:26:37;572.13;;;530.38;;
67503;SDS011;54351;49.108;1.502;2022-11-20T18:29:04;570.00;;;528.75;;
67503;SDS011;54351;49.108;1.502;2022-11-20T18:31:42;589.53;;;546.90;;
67503;SDS011;54351;49.108;1.502;2022-11-20T18:34:11;514.20;;;475.80;;
67503;SDS011;54351;49.108;1.502;2022-11-20T18:36:38;466.00;;;432.00;;
67503;SDS011;54351;49.108;1.502;2022-11-20T18:39:05;435.20;;;402.80;;
67503;SDS011;54351;49.108;1.502;2022-11-20T18:41:31;409.90;;;379.73;;
67503;SDS011;54351;49.108;1.502;2022-11-20T18:44:19;459.75;;;426.08;;
67503;SDS011;54351;49.108;1.502;2022-11-20T18:47:05;426.00;;;394.48;;
67503;SDS011;54351;49.108;1.502;2022-11-20T18:49:31;502.65;;;464.55;;
67503;SDS011;54351;49.108;1.502;2022-11-20T18:51:57;414.08;;;384.00;;
67503;SDS011;54351;49.108;1.502;2022-11-20T18:54:23;459.90;;;427.25;;
67503;SDS011;54351;49.108;1.502;2022-11-20T18:56:50;451.88;;;418.63;;
67503;SDS011;54351;49.108;1.502;2022-11-20T18:59:16;494.77;;;457.83;;
67503;SDS011;54351;49.108;1.502;2022-11-20T19:01:47;287.75;;;266.35;;
67503;SDS011;54351;49.108;1.502;2022-11-20T19:04:14;498.98;;;462.55;;
67503;SDS011;54351;49.108;1.502;2022-11-20T19:06:41;477.83;;;442.67;;
67503;SDS011;54351;49.108;1.502;2022-11-20T19:09:09;357.23;;;330.92;;
67503;SDS011;54351;49.108;1.502;2022-11-20T19:11:41;503.52;;;466.33;;
67503;SDS011;54351;49.108;1.502;2022-11-20T19:14:08;429.58;;;397.50;;
67503;SDS011;54351;49.108;1.502;2022-11-20T19:16:34;305.77;;;283.20;;
67503;SDS011;54351;49.108;1.502;2022-11-20T19:19:01;400.13;;;371.05;;
67503;SDS011;54351;49.108;1.502;2022-11-20T19:21:28;477.17;;;442.13;;
67503;SDS011;54351;49.108;1.502;2022-11-20T19:23:54;565.15;;;523.85;;
67503;SDS011;54351;49.108;1.502;2022-11-20T19:26:21;521.65;;;483.15;;
67503;SDS011;54351;49.108;1.502;2022-11-20T19:28:47;432.80;;;400.85;;
67503;SDS011;54351;49.108;1.502;2022-11-20T19:31:15;498.70;;;462.23;;
67503;SDS011;54351;49.108;1.502;2022-11-20T19:33:41;532.08;;;492.67;;
67503;SDS011;54351;49.108;1.502;2022-11-20T19:36:12;367.83;;;340.45;;
67503;SDS011;54351;49.108;1.502;2022-11-20T19:38:39;322.88;;;298.60;;
67503;SDS011;54351;49.108;1.502;2022-11-20T19:41:13;387.48;;;358.65;;
67503;SDS011;54351;49.108;1.502;2022-11-20T19:43:42;271.30;;;251.95;;
67503;SDS011;54351;49.108;1.502;2022-11-20T19:46:09;398.08;;;368.73;;
67503;SDS011;54351;49.108;1.502;2022-11-20T19:48:38;359.30;;;332.90;;
67503;SDS011;54351;49.108;1.502;2022-11-20T19:51:11;459.67;;;424.85;;
67503;SDS011;54351;49.108;1.502;2022-11-20T19:53:38;431.40;;;399.88;;
67503;SDS011;54351;49.108;1.502;2022-11-20T19:56:06;397.02;;;368.23;;
67503;SDS011;54351;49.108;1.502;2022-11-20T19:58:33;432.40;;;400.08;;
67503;SDS011;54351;49.108;1.502;2022-11-20T20:03:32;492.00;;;456.20;;
67503;SDS011;54351;49.108;1.502;2022-11-20T20:06:02;439.17;;;406.35;;
67503;SDS011;54351;49.108;1.502;2022-11-20T20:08:28;519.58;;;481.65;;
67503;SDS011;54351;49.108;1.502;2022-11-20T20:10:54;450.15;;;416.30;;
67503;SDS011;54351;49.108;1.502;2022-11-20T20:13:20;626.50;;;580.30;;
67503;SDS011;54351;49.108;1.502;2022-11-20T20:15:46;474.85;;;438.95;;
67503;SDS011;54351;49.108;1.502;2022-11-20T20:18:15;492.58;;;455.73;;
67503;SDS011;54351;49.108;1.502;2022-11-20T20:20:41;457.58;;;424.30;;
67503;SDS011;54351;49.108;1.502;2022-11-20T20:23:10;370.23;;;344.13;;
67503;SDS011;54351;49.108;1.502;2022-11-20T20:25:36;410.48;;;380.38;;
67503;SDS011;54351;49.108;1.502;2022-11-20T20:28:03;448.42;;;415.40;;
67503;SDS011;54351;49.108;1.502;2022-11-20T20:30:29;546.88;;;506.75;;
67503;SDS011;54351;49.108;1.502;2022-11-20T20:32:57;475.75;;;440.92;;
67503;SDS011;54351;49.108;1.502;2022-11-20T20:35:26;482.13;;;446.65;;
67503;SDS011;54351;49.108;1.502;2022-11-20T20:37:55;660.47;;;611.83;;
67503;SDS011;54351;49.108;1.502;2022-11-20T20:40:24;498.20;;;461.45;;
67503;SDS011;54351;49.108;1.502;2022-11-20T20:42:52;487.75;;;452.15;;
67503;SDS011;54351;49.108;1.502;2022-11-20T20:45:18;446.02;;;413.63;;
67503;SDS011;54351;49.108;1.502;2022-11-20T20:47:44;450.17;;;417.55;;
67503;SDS011;54351;49.108;1.502;2022-11-20T20:50:10;429.58;;;399.00;;
67503;SDS011;54351;49.108;1.502;2022-11-20T20:52:39;440.27;;;407.45;;
67503;SDS011;54351;49.108;1.502;2022-11-20T20:55:09;418.10;;;387.75;;
67503;SDS011;54351;49.108;1.502;2022-11-20T20:57:37;453.10;;;420.30;;